Weather at Ouvéa Airport

Public forecast

Using degrees Celsius for public forecast. Weather courtesy of forecast.io.

Closest aviation weather report (METAR) to Ouvéa Airport

Closest report is La Tontouta International Airport, 84.9 nm (157.3 km) SSW.

2024/06/20 18:00 (retrieved 31 minutes ago)

NWWW 201800Z AUTO 13004KT CAVOK 14/13 Q1018 TEMPO 4000 BR

Aviation forecast (TAF) for Ouvéa Airport

Forecast is more than 6 hours old.

2024/06/20 11:00 Ammendment (retrieved 8 hours ago)

TAF AMD NWWV 201121Z 2011/2106 CNL